Angler Guide Weather for Red Lake -
Red Lake, Ontario Current Weather Conditions
Enter your "Place, State", US Zip Code or ICAO:  
Forecast Information Radar Information
Red Lake, Ontario, Canada  Lat: 51.05N, Lon: 93.8W
ICAO Used: CYQK
Current Conditions
Updated:
Sun & Moon Information:
Temp: N/A
Humidity: N/A
Wind Speed: N/A
Barometer: N/A
Dewpoint: N/A
Heat Index: N/A
Wind Chill: N/A
Civil Twilight: 8:06 AM EDT
Moonrise: 6:00 AM EDT Moon Phase:
Waning Crescent Moon
Waning Crescent Moon
Moonset: 6:53 PM EDT
Sunrise: 8:40 AM EDT
Sunset: 7:18 PM EDT
Civil Twilight: 7:52 PM EDT
Forecast for Red Lake, ON:
(Forecast based on TAF for )
0616 PM EDT MON NOV 06 2006
  
EVENINGOVERNIGHT
MISTSHOWER
MistShower
TAF based forecast:
Dated: 0616 PM EDT MON NOV 06 2006
Evening...Overcast with mist with winds from the north west at 6 mph. Possible periods of overcast with mist.
Overnight...Overcast with mist with winds from the north west at 6 mph. Then turning overcast with light showers,rain,snow and mist with winds variable at 3 mph. Then overcast with a 30 percent chance of mist. Possible periods of overcast with mist.
Original Encoded TAF:
Dated: 0616 PM EDT MON NOV 06 2006
2006/11/06 22:16
CYQK 062216Z 062208 32005KT 3SM BR OVC003 TEMPO 2205 6SM BR SCT003 OVC008 FM0500Z VRB03KT 2SM -SHRASN BR OVC003 PROB30 0508 2SM -SHPL BR OVC002=




Powered by Angler Guide.com
Copyright 2007, all rights reserved.